createdAt,value
2019-05-14T00:01:31.458Z,5.20
2019-05-14T00:04:02.074Z,5.36
2019-05-14T00:06:31.334Z,5.31
2019-05-14T00:09:01.487Z,5.12
2019-05-14T00:11:31.299Z,5.14
2019-05-14T00:14:02.704Z,5.12
2019-05-14T00:16:31.873Z,5.05
2019-05-14T00:19:01.968Z,4.56
2019-05-14T00:21:31.611Z,4.77
2019-05-14T00:24:02.454Z,4.93
2019-05-14T00:26:31.900Z,5.03
2019-05-14T00:29:01.700Z,4.97
2019-05-14T00:31:31.751Z,4.84
2019-05-14T00:34:02.032Z,4.77
2019-05-14T00:36:31.922Z,4.40
2019-05-14T00:39:01.783Z,4.55
2019-05-14T00:41:31.298Z,4.64
2019-05-14T00:44:01.916Z,4.70
2019-05-14T00:46:31.577Z,4.54
2019-05-14T00:49:01.793Z,4.31
2019-05-14T00:51:31.811Z,4.29
2019-05-14T00:54:02.142Z,4.39
2019-05-14T00:56:32.128Z,4.33
2019-05-14T00:59:03.589Z,4.38
2019-05-14T01:01:32.732Z,4.36
2019-05-14T01:04:03.001Z,4.27
2019-05-14T01:06:36.648Z,4.25
2019-05-14T01:09:06.343Z,4.03
2019-05-14T01:11:35.399Z,4.00
2019-05-14T01:14:05.715Z,4.32
2019-05-14T01:16:34.749Z,4.46
2019-05-14T01:19:04.942Z,4.19
2019-05-14T01:21:33.972Z,4.06
2019-05-14T01:24:02.972Z,4.19
2019-05-14T01:26:32.092Z,4.29
2019-05-14T01:29:01.552Z,4.27
2019-05-14T01:31:31.506Z,4.19
2019-05-14T01:34:02.167Z,4.02
2019-05-14T01:36:32.097Z,4.11
2019-05-14T01:39:01.934Z,4.14
2019-05-14T01:41:33.114Z,4.20
2019-05-14T01:44:03.740Z,4.12
2019-05-14T01:46:32.863Z,4.13
2019-05-14T01:49:02.305Z,4.18
2019-05-14T01:51:31.762Z,4.34
2019-05-14T01:54:03.020Z,4.22
2019-05-14T01:56:32.080Z,4.07
2019-05-14T01:59:01.653Z,4.07
2019-05-14T02:01:31.485Z,4.02
2019-05-14T02:04:02.379Z,3.98
2019-05-14T02:06:31.898Z,3.73
2019-05-14T02:09:02.003Z,3.66
2019-05-14T02:11:32.054Z,3.79
2019-05-14T02:14:06.415Z,3.70
2019-05-14T02:16:35.435Z,3.83
2019-05-14T02:19:04.652Z,3.93
2019-05-14T02:21:33.732Z,3.88
2019-05-14T02:24:04.361Z,3.57
2019-05-14T02:26:33.358Z,3.74
2019-05-14T02:29:02.486Z,3.70
2019-05-14T02:31:32.360Z,3.45
2019-05-14T02:34:01.650Z,3.36
2019-05-14T02:36:31.180Z,3.10
2019-05-14T02:39:00.738Z,3.01
2019-05-14T02:41:45.306Z,3.17
2019-05-14T02:44:18.825Z,3.37
2019-05-14T02:46:50.229Z,3.44
2019-05-14T02:49:21.719Z,3.46
2019-05-14T02:51:51.213Z,3.19
2019-05-14T02:54:21.604Z,2.99
2019-05-14T02:56:50.669Z,3.10
2019-05-14T02:59:19.907Z,3.14
2019-05-14T03:01:50.344Z,3.32
2019-05-14T03:04:20.010Z,3.37
2019-05-14T03:06:49.821Z,3.47
2019-05-14T03:09:20.337Z,3.46
2019-05-14T03:11:49.766Z,3.11
2019-05-14T03:14:21.238Z,3.20
2019-05-14T03:16:50.284Z,2.79
2019-05-14T03:19:19.806Z,2.68
2019-05-14T03:21:50.126Z,2.86
2019-05-14T03:24:21.118Z,2.89
2019-05-14T03:26:50.350Z,2.75
2019-05-14T03:29:19.911Z,3.01
2019-05-14T03:31:52.549Z,2.82
2019-05-14T03:34:22.138Z,3.02
2019-05-14T03:36:52.529Z,3.24
2019-05-14T03:39:21.918Z,3.23
2019-05-14T03:41:50.956Z,3.14
2019-05-14T03:44:20.136Z,3.07
2019-05-14T03:46:55.108Z,3.04
2019-05-14T03:49:22.126Z,3.11
2019-05-14T03:51:51.386Z,3.08
2019-05-14T03:54:20.436Z,3.14
2019-05-14T03:56:50.843Z,3.15
2019-05-14T03:59:20.210Z,3.17
2019-05-14T04:01:51.020Z,3.17
2019-05-14T04:04:20.201Z,3.08
2019-05-14T04:06:49.860Z,3.12
2019-05-14T04:09:20.239Z,3.08
2019-05-14T04:11:50.806Z,3.01
2019-05-14T04:14:22.458Z,2.96
2019-05-14T04:17:08.081Z,3.10
2019-05-14T04:19:25.547Z,3.38
2019-05-14T04:21:54.761Z,3.41
2019-05-14T04:24:23.790Z,3.57
2019-05-14T04:27:06.903Z,3.49
2019-05-14T04:29:30.621Z,3.93
2019-05-14T04:32:00.472Z,4.21
2019-05-14T04:34:34.379Z,4.07
2019-05-14T04:37:05.488Z,4.16
2019-05-14T04:39:34.594Z,3.84
2019-05-14T04:42:03.650Z,4.46
2019-05-14T04:44:32.740Z,4.23
2019-05-14T04:47:21.730Z,4.29
2019-05-14T04:49:32.589Z,4.92
2019-05-14T04:52:01.706Z,5.39
2019-05-14T04:54:30.763Z,3.18
2019-05-14T04:57:00.352Z,5.63
2019-05-14T04:59:30.128Z,5.77
2019-05-14T05:02:00.268Z,5.86
2019-05-14T05:04:30.122Z,5.37
2019-05-14T05:06:59.594Z,5.89
2019-05-14T05:09:29.485Z,5.72
2019-05-14T05:11:59.841Z,5.92
2019-05-14T05:14:29.777Z,6.66
2019-05-14T05:17:00.587Z,6.82
2019-05-14T05:19:29.666Z,6.73
2019-05-14T05:21:59.125Z,6.64
2019-05-14T05:24:28.845Z,7.04
2019-05-14T05:26:58.642Z,7.51
2019-05-14T05:29:28.609Z,8.17
2019-05-14T05:31:59.380Z,8.97
2019-05-14T05:34:28.680Z,8.97
2019-05-14T05:36:59.275Z,8.43
2019-05-14T05:39:28.643Z,8.48
2019-05-14T05:41:58.493Z,8.60
2019-05-14T05:44:28.743Z,9.33
2019-05-14T05:46:59.825Z,9.51
2019-05-14T05:49:29.327Z,9.47
2019-05-14T05:52:00.073Z,9.25
2019-05-14T05:54:30.407Z,9.26
2019-05-14T05:57:02.081Z,9.87
2019-05-14T05:59:31.119Z,10.31
2019-05-14T06:02:00.279Z,9.84
2019-05-14T06:04:29.412Z,9.67
2019-05-14T06:07:02.852Z,10.28
2019-05-14T06:09:32.054Z,9.85
2019-05-14T06:12:01.207Z,10.44
2019-05-14T06:14:31.791Z,11.03
2019-05-14T06:17:00.876Z,11.59
2019-05-14T06:19:29.981Z,13.26
2019-05-14T06:21:59.846Z,12.49
2019-05-14T06:24:31.544Z,13.68
2019-05-14T06:27:04.106Z,13.56
2019-05-14T06:29:34.807Z,12.88
2019-05-14T06:32:04.111Z,13.92
2019-05-14T06:34:33.261Z,12.76
2019-05-14T06:37:03.704Z,13.48
2019-05-14T06:39:32.883Z,13.54
2019-05-14T06:42:02.058Z,13.68
2019-05-14T06:44:32.246Z,13.53
2019-05-14T06:47:02.877Z,13.13
2019-05-14T06:49:31.966Z,14.05
2019-05-14T06:52:00.993Z,14.17
2019-05-14T06:54:30.149Z,13.92
2019-05-14T06:56:59.161Z,14.87
2019-05-14T06:59:28.874Z,14.63
2019-05-14T07:01:58.264Z,15.53
2019-05-14T07:04:28.868Z,14.97
2019-05-14T07:06:59.142Z,15.02
2019-05-14T07:09:29.043Z,15.27
2019-05-14T07:12:03.652Z,15.12
2019-05-14T07:14:32.695Z,15.32
2019-05-14T07:17:01.757Z,14.44
2019-05-14T07:19:30.872Z,14.62
2019-05-14T07:22:00.045Z,15.44
2019-05-14T07:25:10.095Z,14.94
2019-05-14T07:27:40.648Z,15.05
2019-05-14T07:30:10.779Z,14.96
2019-05-14T07:32:39.955Z,15.63
2019-05-14T07:35:11.803Z,16.12
2019-05-14T07:37:41.509Z,15.44
2019-05-14T07:40:10.623Z,15.78
2019-05-14T07:42:39.670Z,15.69
2019-05-14T07:45:09.575Z,15.73
2019-05-14T07:47:39.881Z,14.11
2019-05-14T07:50:10.075Z,15.36
2019-05-14T07:52:45.473Z,16.08
2019-05-14T07:55:12.263Z,16.97
2019-05-14T07:57:42.585Z,14.30
2019-05-14T08:00:12.011Z,14.84
2019-05-14T08:02:41.147Z,14.80
2019-05-14T08:05:10.466Z,13.85
2019-05-14T08:07:39.525Z,16.13
2019-05-14T08:10:09.171Z,16.68
2019-05-14T08:12:39.842Z,16.35
2019-05-14T08:15:18.271Z,15.68
2019-05-14T08:17:39.799Z,17.17
2019-05-14T08:20:09.967Z,16.82
2019-05-14T08:22:39.056Z,16.84
2019-05-14T08:25:08.634Z,17.54
2019-05-14T08:27:38.932Z,16.73
2019-05-14T08:30:08.839Z,16.94
2019-05-14T08:32:39.024Z,15.58
2019-05-14T08:35:09.051Z,15.70
2019-05-14T08:37:38.902Z,15.60
2019-05-14T08:40:09.522Z,15.08
2019-05-14T08:42:38.877Z,14.91
2019-05-14T08:45:13.519Z,15.56
2019-05-14T08:47:43.397Z,16.84
2019-05-14T08:50:12.478Z,17.15
2019-05-14T08:52:41.575Z,14.65
2019-05-14T08:55:13.991Z,15.64
2019-05-14T08:57:44.393Z,16.68
2019-05-14T09:00:14.265Z,16.55
2019-05-14T09:02:43.444Z,16.23
2019-05-14T09:05:12.529Z,14.53
2019-05-14T09:07:41.719Z,16.59
2019-05-14T09:10:10.865Z,16.32
2019-05-14T09:12:39.961Z,15.82
2019-05-14T09:15:09.754Z,16.26
2019-05-14T09:17:39.366Z,15.85
2019-05-14T09:20:11.616Z,16.15
2019-05-14T09:22:39.954Z,17.59
2019-05-14T09:25:09.084Z,16.54
2019-05-14T09:27:38.945Z,16.41
2019-05-14T09:30:09.670Z,17.06
2019-05-14T09:32:41.303Z,16.97
2019-05-14T09:35:11.314Z,18.02
2019-05-14T09:37:41.504Z,18.15
2019-05-14T09:40:10.797Z,17.66
2019-05-14T09:42:39.929Z,16.10
2019-05-14T09:45:10.891Z,16.38
2019-05-14T09:47:39.953Z,16.78
2019-05-14T09:50:19.200Z,15.73
2019-05-14T09:52:42.202Z,16.43
2019-05-14T09:55:11.328Z,17.13
2019-05-14T09:57:41.911Z,16.89
2019-05-14T10:00:14.511Z,17.13
2019-05-14T10:02:43.209Z,16.61
2019-05-14T10:05:12.335Z,15.22
2019-05-14T10:07:43.070Z,15.28
2019-05-14T10:10:12.090Z,14.23
2019-05-14T10:12:52.958Z,14.49
2019-05-14T10:15:12.002Z,15.73
2019-05-14T10:17:41.101Z,16.22
2019-05-14T10:20:10.216Z,14.34
2019-05-14T10:22:39.930Z,14.66
2019-05-14T10:25:11.382Z,15.07
2019-05-14T10:27:40.566Z,14.93
2019-05-14T10:30:11.337Z,15.54
2019-05-14T10:32:41.710Z,15.97
2019-05-14T10:35:10.984Z,15.88
2019-05-14T10:37:40.281Z,15.58
2019-05-14T10:40:10.465Z,15.23
2019-05-14T10:42:40.349Z,14.91
2019-05-14T10:45:12.743Z,16.03
2019-05-14T10:47:42.107Z,17.33
2019-05-14T10:50:13.829Z,16.86
2019-05-14T10:52:43.102Z,17.56
2019-05-14T10:55:12.122Z,16.36
2019-05-14T10:57:42.484Z,17.53
2019-05-14T11:00:11.613Z,17.87
2019-05-14T11:02:40.700Z,17.94
2019-05-14T11:05:09.742Z,15.79
2019-05-14T11:07:41.685Z,15.67
2019-05-14T11:10:09.681Z,15.04
2019-05-14T11:12:39.771Z,16.67
2019-05-14T11:15:09.054Z,17.22
2019-05-14T11:17:40.681Z,17.93
2019-05-14T11:20:08.924Z,17.49
2019-05-14T11:22:38.175Z,18.11
2019-05-14T11:25:09.186Z,18.34
2019-05-14T11:27:38.796Z,18.88
2019-05-14T11:30:08.945Z,16.17
2019-05-14T11:32:38.679Z,14.90
2019-05-14T11:35:12.783Z,15.89
2019-05-14T11:37:41.380Z,15.90
2019-05-14T11:40:10.703Z,15.81
2019-05-14T11:42:39.808Z,17.12
2019-05-14T11:45:09.109Z,16.97
2019-05-14T11:47:39.263Z,17.54
2019-05-14T11:50:10.054Z,18.60
2019-05-14T11:52:41.298Z,18.28
2019-05-14T11:55:12.698Z,16.69
2019-05-14T11:57:42.920Z,16.46
2019-05-14T12:00:13.620Z,17.67
2019-05-14T12:02:49.800Z,17.26
2019-05-14T12:05:19.776Z,16.08
2019-05-14T12:07:49.727Z,18.52
2019-05-14T12:10:19.054Z,17.21
2019-05-14T12:12:48.925Z,17.05
2019-05-14T12:15:18.843Z,17.17
2019-05-14T12:17:51.066Z,15.05
2019-05-14T12:20:18.777Z,15.80
2019-05-14T12:22:50.102Z,16.16
2019-05-14T12:25:19.207Z,15.52
2019-05-14T12:27:49.523Z,15.99
2019-05-14T12:30:19.712Z,16.14
2019-05-14T12:32:50.138Z,15.64
2019-05-14T12:35:19.889Z,14.38
2019-05-14T12:37:50.422Z,14.16
2019-05-14T12:40:19.603Z,15.12
2019-05-14T12:42:49.795Z,15.79
2019-05-14T12:45:21.490Z,15.98
2019-05-14T12:47:51.818Z,17.01
2019-05-14T12:50:21.201Z,16.15
2019-05-14T12:52:50.314Z,16.25
2019-05-14T12:55:19.800Z,17.02
2019-05-14T12:57:48.965Z,17.71
2019-05-14T13:00:18.098Z,17.09
2019-05-14T13:02:49.650Z,16.42
2019-05-14T13:05:18.757Z,14.71
2019-05-14T13:07:50.986Z,15.11
2019-05-14T13:10:19.034Z,15.28
2019-05-14T13:12:48.541Z,16.21
2019-05-14T13:15:20.210Z,17.19
2019-05-14T13:17:50.408Z,17.42
2019-05-14T13:20:21.444Z,18.15
2019-05-14T13:22:50.587Z,15.80
2019-05-14T13:25:19.702Z,15.63
2019-05-14T13:27:48.746Z,15.13
2019-05-14T13:30:18.616Z,16.87
2019-05-14T13:32:48.802Z,17.29
2019-05-14T13:35:19.713Z,17.63
2019-05-14T13:37:50.001Z,17.99
2019-05-14T13:40:21.166Z,16.99
2019-05-14T13:42:49.895Z,16.56
2019-05-14T13:45:19.305Z,17.52
2019-05-14T13:47:48.934Z,17.83
2019-05-14T13:50:19.741Z,18.01
2019-05-14T13:53:09.341Z,16.87
2019-05-14T13:55:21.046Z,16.19
2019-05-14T13:57:51.226Z,15.96
2019-05-14T14:00:20.852Z,16.57
2019-05-14T14:02:49.909Z,16.58
2019-05-14T14:05:20.283Z,16.41
2019-05-14T14:07:49.655Z,16.83
2019-05-14T14:10:18.913Z,16.69
2019-05-14T14:12:49.763Z,16.78
2019-05-14T14:15:19.181Z,15.95
2019-05-14T14:17:49.563Z,15.50
2019-05-14T14:20:19.548Z,16.26
2019-05-14T14:22:49.178Z,16.34
2019-05-14T14:25:18.340Z,16.30
2019-05-14T14:27:48.669Z,16.08
2019-05-14T14:30:19.540Z,16.24
2019-05-14T14:32:50.781Z,15.60
2019-05-14T14:35:23.476Z,15.79
2019-05-14T14:37:52.911Z,16.05
2019-05-14T14:40:23.214Z,16.38
2019-05-14T14:42:53.712Z,16.40
2019-05-14T14:45:22.749Z,15.78
2019-05-14T14:47:51.865Z,15.67
2019-05-14T14:50:23.323Z,15.90
2019-05-14T14:52:52.375Z,15.72
2019-05-14T14:55:21.381Z,15.48
2019-05-14T14:57:54.443Z,15.53
2019-05-14T15:00:21.409Z,15.01
2019-05-14T15:02:50.568Z,15.34
2019-05-14T15:05:20.087Z,15.74
2019-05-14T15:07:50.021Z,15.09
2019-05-14T15:10:19.465Z,14.69
2019-05-14T15:12:49.704Z,15.42
2019-05-14T15:15:19.098Z,15.55
2019-05-14T15:17:48.441Z,15.64
2019-05-14T15:20:19.594Z,15.57
2019-05-14T15:22:49.403Z,15.47
2019-05-14T15:25:18.624Z,15.14
2019-05-14T15:27:49.055Z,14.98
2019-05-14T15:30:18.438Z,15.09
2019-05-14T15:32:51.009Z,15.46
2019-05-14T15:35:19.059Z,14.83
2019-05-14T15:37:48.878Z,14.82
2019-05-14T15:40:22.163Z,15.21
2019-05-14T15:42:49.856Z,15.45
2019-05-14T15:45:19.054Z,15.36
2019-05-14T15:47:48.731Z,15.46
2019-05-14T15:50:20.092Z,15.42
2019-05-14T15:52:48.849Z,15.25
2019-05-14T15:55:18.426Z,14.99
2019-05-14T15:57:47.598Z,15.16
2019-05-14T16:00:19.538Z,15.20
2019-05-14T16:02:50.348Z,14.73
2019-05-14T16:05:18.948Z,14.71
2019-05-14T16:07:50.241Z,14.77
2019-05-14T16:10:21.726Z,14.49
2019-05-14T16:12:50.372Z,14.48
2019-05-14T16:15:19.500Z,14.56
2019-05-14T16:18:05.858Z,14.89
2019-05-14T16:20:21.097Z,14.84
2019-05-14T16:22:50.211Z,14.63
2019-05-14T16:25:19.299Z,14.90
2019-05-14T16:27:48.366Z,14.68
2019-05-14T16:30:19.286Z,14.84
2019-05-14T16:32:50.650Z,14.74
2019-05-14T16:35:21.981Z,14.68
2019-05-14T16:37:51.670Z,14.63
2019-05-14T16:40:20.826Z,14.37
2019-05-14T16:42:49.895Z,14.25
2019-05-14T16:45:20.764Z,14.12
2019-05-14T16:47:49.756Z,14.14
2019-05-14T16:50:19.030Z,14.28
2019-05-14T16:52:50.563Z,13.99
2019-05-14T16:55:26.482Z,14.06
2019-05-14T16:57:52.897Z,14.35
2019-05-14T17:00:22.006Z,14.29
2019-05-14T17:02:51.076Z,14.33
2019-05-14T17:05:20.135Z,14.63
2019-05-14T17:07:49.546Z,14.60
2019-05-14T17:10:18.688Z,14.39
2019-05-14T17:12:53.508Z,14.23
2019-05-14T17:15:18.628Z,14.02
2019-05-14T17:17:48.343Z,14.08
2019-05-14T17:20:19.426Z,14.16
2019-05-14T17:22:49.156Z,14.31
2019-05-14T17:25:26.636Z,14.12
2019-05-14T17:27:50.633Z,14.10
2019-05-14T17:30:19.760Z,13.92
2019-05-14T17:32:49.471Z,13.93
2019-05-14T17:35:19.590Z,14.09
2019-05-14T17:37:49.623Z,14.04
2019-05-14T17:40:19.922Z,14.09
2019-05-14T17:42:48.920Z,13.99
2019-05-14T17:45:17.969Z,13.77
2019-05-14T17:47:49.027Z,13.62
2019-05-14T17:50:18.446Z,13.69
2019-05-14T17:52:55.242Z,13.73
2019-05-14T17:55:18.808Z,13.63
2019-05-14T17:57:57.539Z,13.79
2019-05-14T18:00:20.068Z,13.78
2019-05-14T18:02:49.184Z,13.41
2019-05-14T18:05:18.878Z,13.70
2019-05-14T18:07:48.366Z,13.72
2019-05-14T18:10:19.497Z,13.64
2019-05-14T18:12:48.488Z,13.32
2019-05-14T18:15:17.778Z,13.32
2019-05-14T18:17:49.490Z,13.28
2019-05-14T18:20:18.792Z,13.17
2019-05-14T18:22:48.702Z,13.16
2019-05-14T18:25:18.399Z,13.02
2019-05-14T18:27:49.939Z,12.92
2019-05-14T18:30:19.095Z,12.82
2019-05-14T18:32:48.726Z,12.92
2019-05-14T18:35:18.797Z,12.96
2019-05-14T18:37:48.310Z,12.86
2019-05-14T18:40:18.341Z,12.64
2019-05-14T18:42:48.017Z,12.66
2019-05-14T18:45:18.979Z,12.76
2019-05-14T18:47:48.665Z,12.62
2019-05-14T18:50:19.611Z,12.69
2019-05-14T18:52:48.631Z,12.89
2019-05-14T18:55:18.693Z,12.54
2019-05-14T18:57:50.229Z,12.38
2019-05-14T19:00:19.303Z,12.28
2019-05-14T19:02:58.163Z,12.27
2019-05-14T19:05:33.325Z,12.11
2019-05-14T19:08:03.611Z,12.04
2019-05-14T19:10:32.876Z,12.00
2019-05-14T19:13:08.696Z,11.96
2019-05-14T19:15:38.807Z,11.89
2019-05-14T19:18:10.945Z,11.63
2019-05-14T19:20:42.475Z,11.36
2019-05-14T19:23:11.534Z,11.15
2019-05-14T19:25:40.804Z,11.16
2019-05-14T19:28:11.517Z,11.13
2019-05-14T19:30:40.635Z,10.99
2019-05-14T19:33:09.740Z,11.09
2019-05-14T19:35:40.261Z,10.94
2019-05-14T19:38:09.345Z,10.91
2019-05-14T19:40:39.156Z,10.92
2019-05-14T19:43:09.499Z,10.82
2019-05-14T19:45:38.954Z,10.74
2019-05-14T19:48:08.247Z,10.92
2019-05-14T19:50:38.731Z,10.77
2019-05-14T19:53:09.083Z,10.76
2019-05-14T19:55:39.112Z,10.67
2019-05-14T19:58:09.574Z,10.71
2019-05-14T20:00:38.666Z,10.84
2019-05-14T20:03:09.341Z,10.88
2019-05-14T20:05:39.379Z,10.88
2019-05-14T20:08:09.822Z,10.95
2019-05-14T20:10:39.127Z,10.97
2019-05-14T20:13:08.269Z,10.79
2019-05-14T20:15:39.001Z,10.87
2019-05-14T20:18:08.961Z,10.77
2019-05-14T20:20:38.428Z,10.71
2019-05-14T20:23:07.505Z,10.71
2019-05-14T20:25:38.635Z,10.72
2019-05-14T20:28:08.127Z,10.66
2019-05-14T20:30:39.315Z,10.67
2019-05-14T20:33:08.692Z,10.63
2019-05-14T20:35:40.435Z,10.63
2019-05-14T20:38:09.532Z,10.60
2019-05-14T20:40:41.004Z,10.60
2019-05-14T20:43:10.554Z,10.34
2019-05-14T20:45:40.974Z,10.46
2019-05-14T20:48:12.114Z,10.44
2019-05-14T20:50:41.257Z,10.43
2019-05-14T20:53:10.513Z,10.37
2019-05-14T20:55:39.945Z,10.45
2019-05-14T20:58:09.405Z,10.40
2019-05-14T21:00:41.365Z,10.36
2019-05-14T21:03:11.470Z,10.32
2019-05-14T21:05:42.680Z,10.13
2019-05-14T21:08:13.629Z,10.24
2019-05-14T21:10:42.676Z,10.13
2019-05-14T21:13:11.727Z,10.16
2019-05-14T21:15:43.538Z,10.15
2019-05-14T21:18:12.608Z,10.05
2019-05-14T21:20:41.742Z,10.13
2019-05-14T21:23:10.867Z,10.00
2019-05-14T21:25:41.094Z,10.11
2019-05-14T21:28:10.119Z,10.16
2019-05-14T21:30:39.292Z,9.97
2019-05-14T21:33:10.540Z,10.00
2019-05-14T21:35:39.584Z,9.79
2019-05-14T21:38:09.370Z,9.83
2019-05-14T21:40:39.132Z,9.98
2019-05-14T21:43:11.023Z,9.90
2019-05-14T21:45:39.110Z,9.82
2019-05-14T21:48:08.763Z,9.86
2019-05-14T21:50:38.777Z,9.87
2019-05-14T21:53:08.544Z,9.89
2019-05-14T21:55:39.515Z,9.86
2019-05-14T21:58:11.703Z,9.72
2019-05-14T22:00:42.447Z,9.66
2019-05-14T22:03:11.727Z,9.56
2019-05-14T22:05:42.435Z,9.49
2019-05-14T22:08:11.542Z,9.37
2019-05-14T22:10:40.563Z,9.34
2019-05-14T22:13:09.832Z,9.26
2019-05-14T22:15:40.993Z,9.21
2019-05-14T22:18:17.312Z,9.11
2019-05-14T22:20:41.078Z,9.05
2019-05-14T22:23:10.137Z,8.84
2019-05-14T22:25:40.752Z,8.73
2019-05-14T22:28:15.238Z,8.78
2019-05-14T22:30:40.744Z,8.71
2019-05-14T22:33:09.807Z,8.58
2019-05-14T22:35:41.111Z,8.49
2019-05-14T22:38:10.214Z,8.34
2019-05-14T22:40:39.368Z,8.24
2019-05-14T22:43:09.358Z,8.18
2019-05-14T22:45:38.795Z,8.03
2019-05-14T22:48:09.386Z,7.85
2019-05-14T22:50:41.308Z,7.75
2019-05-14T22:53:09.478Z,7.56
2019-05-14T22:55:38.565Z,7.36
2019-05-14T22:58:08.648Z,7.22
2019-05-14T23:00:45.004Z,7.01
2019-05-14T23:03:09.515Z,6.92
2019-05-14T23:05:39.373Z,6.80
2019-05-14T23:08:09.022Z,6.74
2019-05-14T23:10:38.825Z,6.75
2019-05-14T23:13:09.342Z,6.81
2019-05-14T23:15:38.739Z,6.85
2019-05-14T23:18:08.545Z,6.86
2019-05-14T23:20:38.960Z,6.80
2019-05-14T23:23:09.211Z,6.54
2019-05-14T23:25:38.876Z,6.46
2019-05-14T23:28:08.610Z,6.49
2019-05-14T23:30:38.803Z,6.29
2019-05-14T23:33:08.090Z,6.17
2019-05-14T23:35:39.004Z,6.07
2019-05-14T23:38:08.494Z,5.87
2019-05-14T23:40:38.744Z,5.86
2019-05-14T23:43:08.018Z,5.89
2019-05-14T23:45:38.035Z,5.91
2019-05-14T23:48:09.485Z,5.79
2019-05-14T23:50:40.558Z,5.77
2019-05-14T23:53:09.634Z,5.74
2019-05-14T23:55:39.800Z,5.69
2019-05-14T23:58:08.805Z,5.65
